North Haledon, New Jersey
Current Conditions -  °F | °C
As of 6:53 PM on Sunday 25 Jan 2015 (Local Time) from KCDW Reporting Station
Clear Clear  
Wind Chill: 32°   Ceiling: Unl
Heat Index: 32°   Visibility: 10mi
Dew Point:   Wind: 3mph
Humidity: 37%   Direction: 320°NW
Pressure: 29.92"   Gusts: NA
Location:  40.9358°N, 74.1867°W
Report Text: KCDW 252353Z 32003KT 10SM CLR 00/M13 A2992 RMK AO2 SLP140 T00001133 10050 20000 51037 $
Loading
Personal Weather Stations






























Interactive Weather Map New forecast layout! Learn more

10-Day Weather Forecast

Advertisements
Track Severe Weather on mobile